createdAt,value
2023-03-23T15:58:45.348Z,12.65
2023-03-23T16:01:23.679Z,12.61
2023-03-23T16:03:55.137Z,12.56
2023-03-23T16:06:28.122Z,12.52
2023-03-23T16:09:05.451Z,12.48
2023-03-23T16:11:37.375Z,12.45
2023-03-23T16:14:08.325Z,12.37
2023-03-23T16:16:49.673Z,12.30
2023-03-23T16:19:23.712Z,12.25
2023-03-23T16:21:55.180Z,12.17
2023-03-23T16:24:26.058Z,12.13
2023-03-23T16:26:57.081Z,12.08
2023-03-23T16:29:46.877Z,12.04
2023-03-23T16:32:19.002Z,11.98
2023-03-23T16:34:49.958Z,11.87
2023-03-23T16:37:23.225Z,11.50
2023-03-23T16:39:54.124Z,10.96
2023-03-23T16:42:26.451Z,10.57
2023-03-23T16:45:02.004Z,10.31
2023-03-23T16:47:32.998Z,10.14
2023-03-23T16:50:11.229Z,10.04
2023-03-23T16:52:46.284Z,9.96
2023-03-23T16:55:17.703Z,9.91
2023-03-23T16:57:48.790Z,9.90
2023-03-23T17:00:20.172Z,9.88
2023-03-23T17:02:52.620Z,9.85
2023-03-23T17:05:27.644Z,9.82
2023-03-23T17:07:58.742Z,9.81
2023-03-23T17:10:31.116Z,9.79
2023-03-23T17:13:03.356Z,9.77
2023-03-23T17:15:46.680Z,9.75
2023-03-23T17:18:18.152Z,9.73
2023-03-23T17:20:52.495Z,9.71
2023-03-23T17:23:23.827Z,9.67
2023-03-23T17:25:54.983Z,9.65
2023-03-23T17:28:28.546Z,9.64
2023-03-23T17:31:00.613Z,9.64
2023-03-23T17:33:33.471Z,9.62
2023-03-23T17:36:04.911Z,9.61
2023-03-23T17:38:35.839Z,9.60
2023-03-23T17:41:07.496Z,9.61
2023-03-23T17:43:40.436Z,9.60
2023-03-23T17:46:11.769Z,9.59
2023-03-23T17:48:42.740Z,9.58
2023-03-23T17:51:15.271Z,9.56
2023-03-23T17:53:46.586Z,9.56
2023-03-23T17:56:18.221Z,9.57
2023-03-23T17:58:49.129Z,9.58
2023-03-23T18:01:20.931Z,9.58
2023-03-23T18:03:52.876Z,9.59
2023-03-23T18:06:23.913Z,9.59
2023-03-23T18:08:55.806Z,9.59
2023-03-23T18:11:27.817Z,9.60
2023-03-23T18:13:58.846Z,9.62
2023-03-23T18:16:30.132Z,9.63
2023-03-23T18:19:02.518Z,9.63
2023-03-23T18:21:33.438Z,9.62
2023-03-23T18:24:07.369Z,9.60
2023-03-23T18:26:39.413Z,9.58
2023-03-23T18:29:10.501Z,9.58
2023-03-23T18:31:43.897Z,9.57
2023-03-23T18:34:16.411Z,9.55
2023-03-23T18:36:47.918Z,9.55
2023-03-23T18:39:18.827Z,9.53
2023-03-23T18:41:49.889Z,9.51
2023-03-23T18:44:20.832Z,9.50
2023-03-23T18:46:51.789Z,9.51
2023-03-23T18:49:23.357Z,9.50
2023-03-23T18:51:54.468Z,9.51
2023-03-23T18:54:26.532Z,9.53
2023-03-23T18:57:00.199Z,9.54
2023-03-23T18:59:33.514Z,9.51
2023-03-23T19:02:06.022Z,9.52
2023-03-23T19:04:40.208Z,9.52
2023-03-23T19:07:12.815Z,9.51
2023-03-23T19:09:45.467Z,9.51
2023-03-23T19:12:16.366Z,9.50
2023-03-23T19:14:47.311Z,9.47
2023-03-23T19:17:19.160Z,9.47
2023-03-23T19:19:49.991Z,9.46
2023-03-23T19:22:20.902Z,9.44
2023-03-23T19:24:51.874Z,9.41
2023-03-23T19:27:22.834Z,9.39
2023-03-23T19:29:54.139Z,9.36
2023-03-23T19:32:25.198Z,9.30
2023-03-23T19:34:56.577Z,9.27
2023-03-23T19:37:27.659Z,9.24
2023-03-23T19:40:00.195Z,9.22
2023-03-23T19:42:32.454Z,9.19
2023-03-23T19:45:03.831Z,9.19
2023-03-23T19:47:37.992Z,9.19
2023-03-23T19:50:09.648Z,9.20
2023-03-23T19:52:42.136Z,9.21
2023-03-23T19:55:13.329Z,9.21
2023-03-23T19:57:44.577Z,9.22
2023-03-23T20:00:16.557Z,9.23
2023-03-23T20:02:47.523Z,9.22
2023-03-23T20:05:19.444Z,9.22
2023-03-23T20:07:52.010Z,9.22
2023-03-23T20:10:22.980Z,9.22
2023-03-23T20:12:53.951Z,9.22
2023-03-23T20:15:24.931Z,9.21
2023-03-23T20:17:58.092Z,9.21
2023-03-23T20:20:29.494Z,9.20
2023-03-23T20:23:01.325Z,9.18
2023-03-23T20:25:32.263Z,9.15
2023-03-23T20:28:06.453Z,9.13
2023-03-23T20:30:37.512Z,9.11
2023-03-23T20:33:08.743Z,9.09
2023-03-23T20:35:39.769Z,9.04
2023-03-23T20:38:10.707Z,9.00
2023-03-23T20:40:41.677Z,8.94
2023-03-23T20:43:13.213Z,8.88
2023-03-23T20:45:44.332Z,8.83
2023-03-23T20:48:16.187Z,8.77
2023-03-23T20:50:49.572Z,8.71
2023-03-23T20:53:24.391Z,8.65
2023-03-23T20:56:02.708Z,8.60
2023-03-23T20:58:34.603Z,8.58
2023-03-23T21:01:08.354Z,8.54
2023-03-23T21:03:41.522Z,8.50
2023-03-23T21:06:12.886Z,8.46
2023-03-23T21:08:44.072Z,8.43
2023-03-23T21:11:19.985Z,8.38
2023-03-23T21:13:51.709Z,8.35
2023-03-23T21:16:23.592Z,8.31
2023-03-23T21:18:54.634Z,8.30
2023-03-23T21:21:26.611Z,8.28
2023-03-23T21:23:57.646Z,8.25
2023-03-23T21:26:30.012Z,8.20
2023-03-23T21:29:01.059Z,8.17
2023-03-23T21:31:34.578Z,8.15
2023-03-23T21:34:05.603Z,8.13
2023-03-23T21:36:36.581Z,8.09
2023-03-23T21:39:07.592Z,8.05
2023-03-23T21:41:42.350Z,8.01
2023-03-23T21:44:14.662Z,8.00
2023-03-23T21:46:45.588Z,7.96
2023-03-23T21:49:16.663Z,7.94
2023-03-23T21:51:49.048Z,7.93
2023-03-23T21:54:21.279Z,7.90
2023-03-23T21:56:52.328Z,7.86
2023-03-23T21:59:28.117Z,7.84
2023-03-23T22:02:01.242Z,7.83
2023-03-23T22:04:32.316Z,7.79
2023-03-23T22:07:03.485Z,7.75
2023-03-23T22:09:35.992Z,7.74
2023-03-23T22:12:07.265Z,7.73
2023-03-23T22:14:38.660Z,7.73
2023-03-23T22:17:11.599Z,7.71
2023-03-23T22:19:43.952Z,7.69
2023-03-23T22:22:17.623Z,7.68
2023-03-23T22:24:49.531Z,7.66
2023-03-23T22:27:20.913Z,7.65
2023-03-23T22:29:52.005Z,7.64
2023-03-23T22:32:22.964Z,7.63
2023-03-23T22:34:54.280Z,7.62
2023-03-23T22:37:25.477Z,7.61
2023-03-23T22:39:56.442Z,7.61
2023-03-23T22:42:27.360Z,7.62
2023-03-23T22:44:58.328Z,7.65
2023-03-23T22:47:29.346Z,7.66
2023-03-23T22:50:00.254Z,7.68
2023-03-23T22:52:32.011Z,7.71
2023-03-23T22:55:05.190Z,7.72
2023-03-23T22:57:36.126Z,7.74
2023-03-23T23:00:13.600Z,7.73
2023-03-23T23:02:45.153Z,7.73
2023-03-23T23:05:16.206Z,7.73
2023-03-23T23:07:49.574Z,7.73
2023-03-23T23:10:20.521Z,7.73
2023-03-23T23:12:53.426Z,7.73
2023-03-23T23:15:24.602Z,7.71
2023-03-23T23:17:55.555Z,7.72
2023-03-23T23:20:26.691Z,7.72
2023-03-23T23:22:57.754Z,7.72
2023-03-23T23:25:30.206Z,7.69
2023-03-23T23:28:03.672Z,7.68
2023-03-23T23:30:35.014Z,7.65
2023-03-23T23:33:06.841Z,7.63
2023-03-23T23:35:39.370Z,7.62
2023-03-23T23:38:11.822Z,7.60
2023-03-23T23:40:45.938Z,7.59
2023-03-23T23:43:17.142Z,7.59
2023-03-23T23:45:48.005Z,7.57
2023-03-23T23:48:19.012Z,7.55
2023-03-23T23:50:50.570Z,7.53
2023-03-23T23:53:21.938Z,7.51
2023-03-23T23:55:52.867Z,7.49
2023-03-23T23:58:23.727Z,7.48
